Time;durP1;ratioP1;P1;durP2;ratioP2;P2;SDS_P1;SDS_P2;PMS_P1;PMS_P2;Temp;Humidity;BMP_temperature;BMP_pressure;BME280_temperature;BME280_humidity;BME280_pressure;Samples;Min_cycle;Max_cycle;Signal;HPM_P1;HPM_P2
2023/09/24 00:01:03;;;;;;;1.27;0.70;;;11.70;99.90;;;;;;4985848;28;20562;-67
2023/09/24 00:03:31;;;;;;;4.53;0.80;;;11.60;99.90;;;;;;5005800;28;20050;-67
2023/09/24 00:05:59;;;;;;;2.42;0.70;;;11.60;99.90;;;;;;5008201;28;20050;-67
2023/09/24 00:08:24;;;;;;;2.63;1.17;;;11.50;99.90;;;;;;5004997;28;20049;-66
2023/09/24 00:10:52;;;;;;;1.48;0.75;;;11.50;99.90;;;;;;4992312;28;20061;-67
2023/09/24 00:13:22;;;;;;;2.78;1.23;;;11.40;99.90;;;;;;5006804;28;20057;-67
2023/09/24 00:15:49;;;;;;;2.03;0.82;;;11.40;99.90;;;;;;5013092;28;20120;-67
2023/09/24 00:18:17;;;;;;;4.85;1.02;;;11.30;99.90;;;;;;5016853;28;20046;-67
2023/09/24 00:20:43;;;;;;;5.55;0.98;;;11.40;99.90;;;;;;5009122;28;20056;-66
2023/09/24 00:23:14;;;;;;;3.67;0.70;;;11.40;99.90;;;;;;5010925;28;20038;-66
2023/09/24 00:25:40;;;;;;;2.53;0.90;;;11.40;99.90;;;;;;5009329;28;20100;-66
2023/09/24 00:28:07;;;;;;;1.83;0.82;;;11.50;99.90;;;;;;4995548;28;20033;-67
2023/09/24 00:30:34;;;;;;;1.30;0.93;;;11.50;99.90;;;;;;5009205;28;20504;-66
2023/09/24 00:33:00;;;;;;;1.60;0.75;;;11.50;99.90;;;;;;5014225;28;20564;-67
2023/09/24 00:35:26;;;;;;;2.65;1.02;;;11.50;99.90;;;;;;5015130;28;20045;-66
2023/09/24 00:37:52;;;;;;;3.35;1.10;;;11.50;99.90;;;;;;5014781;28;20081;-66
2023/09/24 00:40:21;;;;;;;7.57;1.87;;;11.50;99.90;;;;;;5006801;28;20030;-66
2023/09/24 00:42:47;;;;;;;3.30;1.20;;;11.50;99.90;;;;;;5003664;28;20107;-66
2023/09/24 00:45:14;;;;;;;6.63;1.27;;;11.60;99.90;;;;;;5010940;28;20042;-67
2023/09/24 00:47:43;;;;;;;4.68;1.40;;;11.60;99.90;;;;;;5008105;28;20413;-67
2023/09/24 00:50:10;;;;;;;1.63;1.10;;;11.70;99.90;;;;;;5011367;28;20081;-67
2023/09/24 00:52:38;;;;;;;6.05;1.50;;;11.60;99.90;;;;;;5010460;28;20049;-66
2023/09/24 00:55:06;;;;;;;5.53;1.33;;;11.70;99.90;;;;;;5012382;28;20046;-66
2023/09/24 00:57:33;;;;;;;3.42;1.25;;;11.70;99.90;;;;;;5023388;28;20045;-67
2023/09/24 01:00:05;;;;;;;1.70;1.40;;;11.70;99.90;;;;;;5009886;28;20070;-67
2023/09/24 01:02:32;;;;;;;5.30;1.77;;;11.70;99.90;;;;;;5019547;28;20074;-67
2023/09/24 01:05:00;;;;;;;2.50;1.27;;;11.80;99.90;;;;;;5008369;28;20442;-64
2023/09/24 01:07:28;;;;;;;7.03;1.30;;;11.80;99.90;;;;;;5025888;28;20054;-64
2023/09/24 01:09:54;;;;;;;4.13;1.27;;;11.80;99.90;;;;;;5028857;28;20139;-64
2023/09/24 01:12:21;;;;;;;3.85;1.35;;;11.80;99.90;;;;;;5029892;28;20046;-65
2023/09/24 01:14:48;;;;;;;2.60;0.95;;;11.90;99.90;;;;;;5029176;28;20530;-66
2023/09/24 01:17:14;;;;;;;1.50;1.00;;;11.90;99.90;;;;;;4994697;28;20128;-66
2023/09/24 01:19:40;;;;;;;4.78;1.40;;;11.80;99.90;;;;;;5030295;28;20077;-65
2023/09/24 01:22:07;;;;;;;2.88;1.23;;;11.80;99.90;;;;;;5028649;28;20053;-65
2023/09/24 01:24:33;;;;;;;4.35;1.15;;;11.80;99.90;;;;;;5030247;28;20053;-65
2023/09/24 01:26:58;;;;;;;7.40;1.30;;;11.80;99.90;;;;;;5010736;28;20423;-65
2023/09/24 01:29:26;;;;;;;5.57;0.80;;;11.70;99.90;;;;;;5017553;28;20118;-66
2023/09/24 01:31:52;;;;;;;10.68;0.98;;;11.70;99.90;;;;;;5010417;28;20046;-65
2023/09/24 01:34:19;;;;;;;2.75;1.15;;;11.60;99.90;;;;;;5011611;28;20126;-65
2023/09/24 01:36:45;;;;;;;4.60;1.13;;;11.60;99.90;;;;;;5029447;28;20049;-65
2023/09/24 01:39:15;;;;;;;6.38;1.10;;;11.60;99.90;;;;;;5028223;28;20064;-65
2023/09/24 01:41:41;;;;;;;4.18;0.80;;;11.60;99.90;;;;;;5011771;28;20488;-66
2023/09/24 01:44:07;;;;;;;4.60;1.13;;;11.50;99.90;;;;;;5027997;28;20038;-65
2023/09/24 01:46:33;;;;;;;3.03;0.50;;;11.50;99.90;;;;;;5010848;28;20548;-66
2023/09/24 01:48:59;;;;;;;1.13;0.60;;;11.50;99.90;;;;;;5027237;28;20079;-66
2023/09/24 01:51:25;;;;;;;3.25;0.98;;;11.50;99.90;;;;;;4993567;28;20053;-65
2023/09/24 01:53:51;;;;;;;0.50;0.50;;;11.40;99.90;;;;;;5028710;28;20486;-65
2023/09/24 01:56:18;;;;;;;3.30;0.68;;;11.30;99.90;;;;;;5028146;28;20428;-65
2023/09/24 01:58:45;;;;;;;2.15;0.90;;;11.30;99.90;;;;;;5029313;28;20060;-65
2023/09/24 02:01:11;;;;;;;1.63;0.80;;;11.20;99.90;;;;;;5009954;28;20127;-65
2023/09/24 02:03:37;;;;;;;3.10;1.00;;;11.10;99.90;;;;;;4995393;28;20056;-65
2023/09/24 02:06:05;;;;;;;3.58;0.77;;;11.10;99.90;;;;;;5027709;28;20407;-65
2023/09/24 02:08:31;;;;;;;2.72;0.93;;;11.10;99.90;;;;;;5026502;28;20482;-65
2023/09/24 02:10:57;;;;;;;2.03;0.98;;;11.00;99.90;;;;;;5010175;28;20172;-65
2023/09/24 02:13:24;;;;;;;4.45;0.90;;;11.10;99.90;;;;;;5028403;28;20057;-65
2023/09/24 02:15:50;;;;;;;2.17;0.88;;;11.10;99.90;;;;;;5028710;28;20045;-65
2023/09/24 02:18:16;;;;;;;7.78;1.05;;;11.10;99.90;;;;;;5026667;28;20107;-65
2023/09/24 02:20:46;;;;;;;4.03;1.10;;;11.00;99.90;;;;;;5028827;28;20041;-65
2023/09/24 02:23:13;;;;;;;5.82;0.73;;;11.00;99.90;;;;;;5006016;28;20049;-65
2023/09/24 02:25:38;;;;;;;5.10;0.77;;;11.00;99.90;;;;;;5020456;28;20053;-65
2023/09/24 02:28:04;;;;;;;2.50;0.70;;;11.00;99.90;;;;;;5024294;28;20056;-65
2023/09/24 02:30:31;;;;;;;4.10;0.70;;;11.00;99.90;;;;;;5028362;28;20594;-65
2023/09/24 02:33:01;;;;;;;3.08;0.82;;;10.90;99.90;;;;;;5027998;28;20156;-66
2023/09/24 02:35:26;;;;;;;1.35;0.80;;;10.90;99.90;;;;;;5010001;28;20045;-66
2023/09/24 02:37:53;;;;;;;4.50;0.90;;;10.90;99.90;;;;;;5028188;28;20462;-65
2023/09/24 02:40:23;;;;;;;1.85;0.88;;;10.90;99.90;;;;;;5026655;28;20128;-65
2023/09/24 02:42:51;;;;;;;5.55;1.13;;;10.80;99.90;;;;;;5011700;28;20153;-65
2023/09/24 02:45:17;;;;;;;2.15;0.70;;;10.90;99.90;;;;;;5009023;28;20059;-66
2023/09/24 02:47:48;;;;;;;3.45;1.10;;;10.80;99.90;;;;;;5028659;28;20526;-65
2023/09/24 02:50:14;;;;;;;1.58;0.90;;;10.80;99.90;;;;;;4999029;28;20491;-65
2023/09/24 02:52:49;;;;;;;6.68;1.05;;;10.80;99.90;;;;;;5027457;28;20175;-65
2023/09/24 02:55:16;;;;;;;5.50;1.30;;;10.80;99.90;;;;;;5027791;28;20041;-65
2023/09/24 02:57:44;;;;;;;2.22;0.80;;;10.90;99.90;;;;;;5027036;28;20396;-66
2023/09/24 03:00:17;;;;;;;2.58;0.45;;;10.80;99.90;;;;;;5027357;28;20041;-65
2023/09/24 03:02:47;;;;;;;3.10;1.00;;;10.80;99.90;;;;;;5026494;28;20376;-65
2023/09/24 03:05:20;;;;;;;2.55;0.73;;;10.80;99.90;;;;;;5009757;28;20095;-65
2023/09/24 03:07:46;;;;;;;1.40;0.80;;;10.80;99.90;;;;;;5027083;28;20037;-65
2023/09/24 03:10:13;;;;;;;2.03;0.85;;;10.70;99.90;;;;;;5026209;28;20484;-65
2023/09/24 03:12:39;;;;;;;2.95;0.60;;;10.70;99.90;;;;;;5027597;28;20119;-65
2023/09/24 03:15:06;;;;;;;2.38;0.82;;;10.70;99.90;;;;;;5026356;28;20045;-66
2023/09/24 03:17:34;;;;;;;0.60;0.60;;;10.60;99.90;;;;;;5026823;28;20091;-66
2023/09/24 03:20:00;;;;;;;2.90;0.80;;;10.60;99.90;;;;;;5026484;28;20052;-65
2023/09/24 03:22:25;;;;;;;1.65;0.98;;;10.60;99.90;;;;;;5027337;28;20037;-65
2023/09/24 03:24:51;;;;;;;7.05;0.95;;;10.50;99.90;;;;;;5009758;28;20037;-65
2023/09/24 03:27:17;;;;;;;1.95;1.20;;;10.60;99.90;;;;;;5009021;28;20136;-65
2023/09/24 03:29:43;;;;;;;3.20;1.05;;;10.50;99.90;;;;;;5025906;28;20037;-65
2023/09/24 03:32:09;;;;;;;2.00;0.90;;;10.60;99.90;;;;;;5007768;28;20057;-65
2023/09/24 03:34:35;;;;;;;1.33;0.95;;;10.50;99.90;;;;;;5027505;28;20046;-65
2023/09/24 03:37:01;;;;;;;2.55;1.10;;;10.50;99.90;;;;;;5008543;28;20053;-65
2023/09/24 03:39:26;;;;;;;0.98;0.98;;;10.50;99.90;;;;;;5027316;28;20377;-65
2023/09/24 03:41:52;;;;;;;3.45;1.10;;;10.50;99.90;;;;;;5025738;28;20061;-65
2023/09/24 03:44:18;;;;;;;4.43;1.40;;;10.50;99.90;;;;;;5009478;28;20049;-65
2023/09/24 03:46:43;;;;;;;1.40;0.93;;;10.40;99.90;;;;;;5025052;28;20072;-66
2023/09/24 03:49:11;;;;;;;2.17;1.30;;;10.40;99.90;;;;;;5008595;28;20045;-65
2023/09/24 03:51:37;;;;;;;3.15;1.25;;;10.40;99.90;;;;;;4985718;28;20168;-66
2023/09/24 03:54:03;;;;;;;3.13;1.17;;;10.40;99.90;;;;;;5025769;28;20488;-65
2023/09/24 03:56:29;;;;;;;4.50;1.73;;;10.40;99.90;;;;;;5027177;28;20049;-65
2023/09/24 03:58:54;;;;;;;4.13;1.20;;;10.40;99.90;;;;;;5008012;28;20045;-66
2023/09/24 04:01:20;;;;;;;2.28;1.23;;;10.50;99.90;;;;;;5022996;28;20041;-66
2023/09/24 04:03:46;;;;;;;1.15;1.05;;;10.40;99.90;;;;;;4990434;28;20041;-65
2023/09/24 04:06:12;;;;;;;2.08;1.33;;;10.50;99.90;;;;;;5026966;28;20073;-65
2023/09/24 04:08:38;;;;;;;3.42;1.20;;;10.50;99.90;;;;;;5008766;28;20132;-65
2023/09/24 04:11:10;;;;;;;3.20;1.15;;;10.40;99.90;;;;;;5007989;28;20041;-65
2023/09/24 04:13:38;;;;;;;1.80;1.15;;;10.50;99.90;;;;;;5023781;28;20061;-66
2023/09/24 04:16:14;;;;;;;2.42;1.02;;;10.40;99.90;;;;;;5025734;28;20053;-65
2023/09/24 04:18:44;;;;;;;3.75;1.00;;;10.40;99.90;;;;;;5030213;28;20503;-66
2023/09/24 04:21:19;;;;;;;0.90;0.90;;;10.40;99.90;;;;;;5030570;28;20507;-65
2023/09/24 04:23:46;;;;;;;1.58;0.90;;;10.40;99.90;;;;;;5010536;28;20049;-66
2023/09/24 04:26:22;;;;;;;2.80;1.00;;;10.30;99.90;;;;;;5031468;28;20099;-66
2023/09/24 04:28:54;;;;;;;1.35;1.10;;;10.30;99.90;;;;;;5028811;28;20063;-65
2023/09/24 04:31:20;;;;;;;6.63;1.05;;;10.30;99.90;;;;;;5031206;28;20042;-66
2023/09/24 04:33:47;;;;;;;1.17;1.05;;;10.30;99.90;;;;;;5029076;28;20048;-66
2023/09/24 04:36:13;;;;;;;4.18;1.33;;;10.30;99.90;;;;;;5013651;28;20076;-66
2023/09/24 04:38:41;;;;;;;1.67;1.23;;;10.30;99.90;;;;;;5011440;28;20119;-66
2023/09/24 04:41:07;;;;;;;1.90;1.20;;;10.30;99.90;;;;;;5011862;28;20195;-65
2023/09/24 04:43:35;;;;;;;2.97;1.50;;;10.30;99.90;;;;;;5030287;28;20128;-66
2023/09/24 04:46:07;;;;;;;3.60;1.27;;;10.30;99.90;;;;;;5029549;28;20117;-66
2023/09/24 04:48:35;;;;;;;13.80;1.60;;;10.30;99.90;;;;;;4996632;28;20045;-65
2023/09/24 04:51:01;;;;;;;21.73;1.65;;;10.30;99.90;;;;;;4989937;28;20125;-66
2023/09/24 04:53:27;;;;;;;54.25;1.90;;;10.30;99.90;;;;;;5030885;28;20045;-65
2023/09/24 04:55:53;;;;;;;30.85;1.40;;;10.30;99.90;;;;;;5029537;28;20049;-66
2023/09/24 04:58:19;;;;;;;37.15;1.33;;;10.30;99.90;;;;;;5029351;28;20041;-66
2023/09/24 05:00:45;;;;;;;27.95;1.40;;;10.20;99.90;;;;;;5028232;28;20518;-66
2023/09/24 05:03:11;;;;;;;49.78;1.48;;;10.30;99.90;;;;;;5028804;28;20041;-66
2023/09/24 05:05:42;;;;;;;54.53;1.60;;;10.30;99.90;;;;;;5029473;28;20594;-66
2023/09/24 05:08:08;;;;;;;69.25;2.20;;;10.30;99.90;;;;;;5029352;28;20041;-66
2023/09/24 05:10:36;;;;;;;81.35;2.00;;;10.30;99.90;;;;;;5025735;28;20404;-66
2023/09/24 05:13:05;;;;;;;82.63;2.88;;;10.30;99.90;;;;;;5029598;28;20096;-66
2023/09/24 05:15:31;;;;;;;51.63;2.07;;;10.30;99.90;;;;;;5029286;28;20116;-66
2023/09/24 05:17:56;;;;;;;62.35;2.60;;;10.40;99.90;;;;;;5008697;28;20132;-65
2023/09/24 05:20:22;;;;;;;74.78;2.35;;;10.40;99.90;;;;;;5019971;28;20155;-66
2023/09/24 05:22:48;;;;;;;64.00;2.38;;;10.30;99.90;;;;;;4989028;28;20448;-65
2023/09/24 05:25:14;;;;;;;55.75;2.38;;;10.40;99.90;;;;;;5007232;28;20046;-66
2023/09/24 05:27:40;;;;;;;73.80;2.53;;;10.40;99.90;;;;;;5024526;28;20041;-66
2023/09/24 05:30:07;;;;;;;36.70;2.33;;;10.40;99.90;;;;;;5007598;28;20560;-66
2023/09/24 05:32:34;;;;;;;55.42;1.90;;;10.40;99.90;;;;;;4995269;28;20044;-66
2023/09/24 05:35:00;;;;;;;38.38;2.15;;;10.30;99.90;;;;;;5029338;28;20419;-66
2023/09/24 05:37:26;;;;;;;49.38;2.17;;;10.30;99.90;;;;;;5027767;28;20045;-66
2023/09/24 05:39:51;;;;;;;41.22;2.28;;;10.30;99.90;;;;;;5012013;28;20095;-66
2023/09/24 05:42:17;;;;;;;69.43;2.33;;;10.30;99.90;;;;;;5006946;28;20065;-66
2023/09/24 05:44:43;;;;;;;62.00;2.50;;;10.30;99.90;;;;;;5011741;28;20357;-65
2023/09/24 05:47:10;;;;;;;26.48;2.05;;;10.30;99.90;;;;;;5028111;28;20120;-65
2023/09/24 05:49:36;;;;;;;44.15;2.40;;;10.30;99.90;;;;;;5029934;28;20399;-66
2023/09/24 05:52:03;;;;;;;43.45;2.53;;;10.40;99.90;;;;;;5013768;28;20099;-66
2023/09/24 05:54:29;;;;;;;18.42;2.47;;;10.40;99.90;;;;;;5021034;28;20061;-66
2023/09/24 05:56:54;;;;;;;10.30;2.33;;;10.40;99.90;;;;;;4994563;28;20087;-65
2023/09/24 05:59:20;;;;;;;4.38;2.40;;;10.40;99.90;;;;;;5028123;28;20049;-65
2023/09/24 06:01:46;;;;;;;4.82;2.97;;;10.50;99.90;;;;;;5011041;28;20037;-66
2023/09/24 06:04:12;;;;;;;2.85;2.65;;;10.50;99.90;;;;;;5022309;28;20073;-66
2023/09/24 06:06:39;;;;;;;2.75;2.53;;;10.50;99.90;;;;;;5029366;28;20045;-66
2023/09/24 06:09:09;;;;;;;2.55;2.35;;;10.50;99.90;;;;;;5027799;28;20103;-65
2023/09/24 06:11:37;;;;;;;5.20;2.90;;;10.70;99.90;;;;;;5010586;28;20088;-66
2023/09/24 06:14:08;;;;;;;3.22;2.95;;;10.60;99.90;;;;;;5028739;28;20402;-66
2023/09/24 06:16:37;;;;;;;2.45;2.25;;;10.70;99.90;;;;;;5027881;28;20051;-65
2023/09/24 06:19:03;;;;;;;6.13;2.63;;;10.70;99.90;;;;;;5028998;28;20057;-66
2023/09/24 06:21:29;;;;;;;3.10;2.80;;;10.80;99.90;;;;;;5024179;28;20226;-66
2023/09/24 06:23:58;;;;;;;3.10;2.80;;;10.70;99.90;;;;;;5004271;28;20038;-66
2023/09/24 06:26:24;;;;;;;5.35;2.90;;;10.70;99.90;;;;;;5026525;28;20132;-66
2023/09/24 06:28:50;;;;;;;8.90;2.88;;;10.80;99.90;;;;;;5028383;28;20046;-65
2023/09/24 06:31:16;;;;;;;5.20;2.63;;;10.90;99.90;;;;;;4994445;28;20125;-65
2023/09/24 06:33:42;;;;;;;4.28;2.78;;;11.00;99.90;;;;;;5021143;28;20128;-66
2023/09/24 06:36:09;;;;;;;5.60;2.67;;;11.20;99.90;;;;;;5007802;28;20120;-66
2023/09/24 06:38:35;;;;;;;3.97;2.78;;;11.30;99.90;;;;;;5009494;28;20045;-66
2023/09/24 06:41:03;;;;;;;4.15;2.80;;;11.40;99.90;;;;;;5014766;28;20385;-66
2023/09/24 06:43:33;;;;;;;3.05;2.72;;;11.50;99.90;;;;;;5009668;28;20038;-66
2023/09/24 06:46:01;;;;;;;;;;;11.60;99.90;;;;;;5011262;28;20539;-66
2023/09/24 06:48:27;;;;;;;5.18;3.22;;;11.70;99.90;;;;;;5010084;28;19925;-66
2023/09/24 06:50:53;;;;;;;4.72;2.97;;;11.90;99.90;;;;;;5009252;28;20471;-66
2023/09/24 06:53:19;;;;;;;5.65;3.13;;;12.00;99.90;;;;;;5012360;28;20064;-66
2023/09/24 06:55:46;;;;;;;6.55;3.15;;;12.10;99.90;;;;;;5015598;28;20037;-66
2023/09/24 06:58:13;;;;;;;6.22;3.63;;;12.30;99.90;;;;;;4997479;28;20096;-66
2023/09/24 07:00:38;;;;;;;6.43;4.38;;;12.50;99.90;;;;;;5015271;28;20052;-65
2023/09/24 07:03:05;;;;;;;4.60;2.88;;;12.60;99.90;;;;;;4997288;28;20046;-66
2023/09/24 07:05:31;;;;;;;3.65;3.15;;;12.80;99.90;;;;;;5010431;28;20092;-65
2023/09/24 07:07:57;;;;;;;5.70;3.35;;;12.90;99.90;;;;;;5009176;28;20088;-66
2023/09/24 07:10:24;;;;;;;4.82;3.33;;;13.00;99.90;;;;;;5023808;28;20496;-66
2023/09/24 07:12:52;;;;;;;7.30;3.85;;;13.10;99.90;;;;;;5025912;28;20052;-66
2023/09/24 07:15:19;;;;;;;5.57;3.83;;;13.30;99.90;;;;;;5010754;28;20076;-66
2023/09/24 07:17:45;;;;;;;5.07;3.55;;;13.40;99.90;;;;;;5026029;28;20518;-66
2023/09/24 07:20:11;;;;;;;7.10;3.08;;;13.40;99.90;;;;;;5021351;28;20042;-66
2023/09/24 07:22:37;;;;;;;5.50;3.42;;;13.50;99.90;;;;;;5022500;28;20060;-66
2023/09/24 07:25:04;;;;;;;6.45;3.58;;;13.60;99.90;;;;;;5005719;28;20046;-66
2023/09/24 07:27:30;;;;;;;5.15;4.00;;;13.70;99.90;;;;;;5003573;28;20136;-66
2023/09/24 07:29:56;;;;;;;8.55;3.63;;;13.80;99.90;;;;;;5021672;28;20116;-66
2023/09/24 07:32:21;;;;;;;11.70;3.67;;;13.90;99.90;;;;;;5005424;28;20042;-66
2023/09/24 07:34:47;;;;;;;11.63;3.92;;;13.90;99.90;;;;;;5020198;28;20548;-66
2023/09/24 07:37:16;;;;;;;4.72;3.70;;;14.00;99.90;;;;;;4991832;28;20511;-66
2023/09/24 07:39:42;;;;;;;4.75;3.13;;;14.10;99.90;;;;;;5012968;28;20037;-66
2023/09/24 07:42:08;;;;;;;8.88;3.50;;;14.30;99.90;;;;;;5012412;28;20766;-66
2023/09/24 07:44:34;;;;;;;8.88;3.67;;;14.40;99.90;;;;;;4999583;28;20483;-66
2023/09/24 07:47:00;;;;;;;10.38;3.70;;;14.50;99.90;;;;;;5012572;28;20045;-65
2023/09/24 07:49:26;;;;;;;10.60;4.43;;;14.60;99.90;;;;;;5016942;28;20045;-66
2023/09/24 07:51:52;;;;;;;5.85;3.40;;;14.60;99.90;;;;;;5012157;28;20099;-65
2023/09/24 07:54:17;;;;;;;9.30;3.80;;;14.70;99.90;;;;;;5005555;28;20507;-66
2023/09/24 07:56:43;;;;;;;10.88;3.80;;;14.80;99.90;;;;;;5023336;28;20124;-66
2023/09/24 07:59:10;;;;;;;6.50;3.83;;;14.80;99.90;;;;;;5013010;28;20060;-66
2023/09/24 08:01:38;;;;;;;5.07;3.08;;;14.80;99.90;;;;;;5017290;28;20052;-65
2023/09/24 08:04:05;;;;;;;6.65;3.50;;;14.90;99.90;;;;;;4996332;28;20093;-66
2023/09/24 08:06:31;;;;;;;6.43;3.08;;;14.90;99.90;;;;;;5015798;28;20049;-66
2023/09/24 08:08:58;;;;;;;5.40;3.50;;;15.00;99.90;;;;;;4995554;28;20061;-66
2023/09/24 08:11:23;;;;;;;7.65;3.25;;;15.00;99.90;;;;;;5026557;28;20053;-66
2023/09/24 08:13:50;;;;;;;11.23;3.10;;;15.00;99.90;;;;;;4991959;28;20183;-66
2023/09/24 08:16:16;;;;;;;9.07;3.22;;;15.10;99.90;;;;;;5009131;28;20087;-66
2023/09/24 08:18:44;;;;;;;10.93;3.25;;;15.20;99.90;;;;;;5007953;28;20519;-66
2023/09/24 08:21:09;;;;;;;6.82;3.35;;;15.30;99.90;;;;;;5026601;28;20037;-66
2023/09/24 08:23:35;;;;;;;10.10;3.40;;;15.40;99.90;;;;;;5004027;28;20057;-66
2023/09/24 08:26:01;;;;;;;7.03;3.25;;;15.50;99.90;;;;;;5004179;28;20053;-67
2023/09/24 08:28:27;;;;;;;5.13;3.25;;;15.60;99.90;;;;;;5026884;28;20056;-66
2023/09/24 08:30:53;;;;;;;4.53;2.97;;;15.70;99.90;;;;;;5025595;28;20042;-66
2023/09/24 08:33:18;;;;;;;5.45;3.20;;;15.80;99.90;;;;;;5005238;28;20057;-66
2023/09/24 08:35:44;;;;;;;4.55;3.00;;;15.90;99.90;;;;;;5017797;28;20049;-66
2023/09/24 08:38:10;;;;;;;5.90;3.33;;;16.00;99.90;;;;;;5026464;28;20553;-66
2023/09/24 08:40:39;;;;;;;5.65;2.97;;;16.10;99.90;;;;;;5006068;28;20400;-66
2023/09/24 08:43:14;;;;;;;5.93;2.87;;;16.10;99.90;;;;;;5026345;28;20033;-66
2023/09/24 08:45:41;;;;;;;6.15;3.00;;;16.20;99.90;;;;;;5001038;28;20514;-66
2023/09/24 08:48:10;;;;;;;7.30;2.50;;;16.20;99.90;;;;;;5024840;28;20041;-66
2023/09/24 08:50:41;;;;;;;8.07;3.03;;;16.20;99.90;;;;;;5027074;28;20045;-65
2023/09/24 08:53:10;;;;;;;7.57;3.10;;;16.20;99.90;;;;;;5003200;28;20135;-66
2023/09/24 08:55:37;;;;;;;7.18;2.60;;;16.30;99.90;;;;;;5026366;28;20399;-66
2023/09/24 08:58:03;;;;;;;4.13;2.67;;;16.40;99.90;;;;;;5025849;28;20083;-65
2023/09/24 09:00:29;;;;;;;8.43;2.63;;;16.40;99.90;;;;;;5021967;28;20499;-66
2023/09/24 09:02:54;;;;;;;3.97;2.58;;;16.50;99.90;;;;;;5005021;28;20125;-65
2023/09/24 09:05:24;;;;;;;4.57;2.17;;;16.50;99.90;;;;;;5026496;28;20381;-66
2023/09/24 09:07:58;;;;;;;8.02;2.55;;;16.60;99.90;;;;;;5005369;28;20127;-66
2023/09/24 09:10:26;;;;;;;6.05;2.42;;;16.60;99.90;;;;;;5020439;28;20136;-66
2023/09/24 09:13:02;;;;;;;8.05;2.67;;;16.60;99.90;;;;;;5029453;28;20699;-66
2023/09/24 09:15:28;;;;;;;4.97;2.25;;;16.70;99.90;;;;;;5007402;28;20041;-66
2023/09/24 09:17:54;;;;;;;3.78;2.38;;;16.70;99.90;;;;;;5009616;28;20048;-66
2023/09/24 09:20:39;;;;;;;7.35;2.22;;;16.80;99.90;;;;;;5011096;28;20041;-66
2023/09/24 09:23:04;;;;;;;4.85;2.08;;;16.80;99.90;;;;;;5022701;28;20052;-66
2023/09/24 09:25:30;;;;;;;3.85;1.77;;;16.90;99.90;;;;;;5026306;28;20050;-66
2023/09/24 09:27:56;;;;;;;4.57;2.50;;;16.90;99.90;;;;;;5010531;28;20152;-66
2023/09/24 09:30:22;;;;;;;5.00;1.90;;;17.00;99.90;;;;;;5027266;28;20116;-66
2023/09/24 09:32:48;;;;;;;4.25;1.90;;;17.10;99.90;;;;;;5026039;28;20056;-66
2023/09/24 09:35:16;;;;;;;5.15;2.15;;;17.10;99.90;;;;;;5027628;28;20072;-66
2023/09/24 09:37:43;;;;;;;2.55;1.80;;;17.20;99.90;;;;;;5018496;28;20040;-66
2023/09/24 09:40:10;;;;;;;4.03;1.92;;;17.30;99.90;;;;;;4996501;28;20476;-66
2023/09/24 09:42:39;;;;;;;6.00;1.48;;;17.40;99.90;;;;;;5021975;28;20091;-65
2023/09/24 09:45:07;;;;;;;6.65;2.60;;;17.40;97.80;;;;;;5026859;28;20042;-66
2023/09/24 09:47:34;;;;;;;3.83;1.65;;;17.40;97.90;;;;;;4993361;28;20053;-66
2023/09/24 09:50:01;;;;;;;3.95;1.83;;;17.50;99.90;;;;;;5025888;28;20053;-65
2023/09/24 09:52:43;;;;;;;3.47;2.00;;;17.50;94.30;;;;;;4994169;28;20046;-65
2023/09/24 09:55:09;;;;;;;4.55;1.65;;;17.60;93.10;;;;;;5029528;28;20550;-65
2023/09/24 09:57:35;;;;;;;7.93;1.77;;;17.60;94.80;;;;;;4995136;28;20125;-65
2023/09/24 10:00:05;;;;;;;10.02;1.85;;;17.60;94.20;;;;;;5025046;28;20099;-65
2023/09/24 10:02:32;;;;;;;3.15;1.70;;;17.70;91.20;;;;;;5009473;28;20076;-66
2023/09/24 10:04:59;;;;;;;2.80;1.65;;;17.70;89.70;;;;;;5011838;28;20142;-66
2023/09/24 10:07:25;;;;;;;5.53;1.75;;;17.70;92.30;;;;;;5028352;28;20176;-65
2023/09/24 10:09:52;;;;;;;4.85;1.90;;;17.80;92.40;;;;;;5022573;28;20081;-65
2023/09/24 10:12:44;;;;;;;3.72;1.63;;;17.80;92.80;;;;;;4995071;28;20050;-65
2023/09/24 10:15:26;;;;;;;3.08;1.55;;;17.90;95.10;;;;;;5022787;28;20061;-66
2023/09/24 10:18:11;;;;;;;4.75;1.73;;;17.90;91.70;;;;;;5029183;28;20515;-65
2023/09/24 10:20:48;;;;;;;4.63;1.90;;;18.00;84.40;;;;;;5009024;28;20053;-65
2023/09/24 10:23:29;;;;;;;3.80;1.90;;;18.00;77.50;;;;;;5027641;28;20495;-65
2023/09/24 10:26:03;;;;;;;3.58;1.77;;;18.00;86.40;;;;;;5029030;28;20594;-65
2023/09/24 10:28:58;;;;;;;4.07;1.63;;;18.10;78.60;;;;;;5025846;28;20107;-66
2023/09/24 10:31:25;;;;;;;7.60;1.65;;;18.10;72.10;;;;;;5001406;28;20222;-65
2023/09/24 10:33:58;;;;;;;3.17;1.33;;;18.10;81.60;;;;;;5024804;28;20041;-65
2023/09/24 10:36:30;;;;;;;3.90;1.42;;;18.10;82.50;;;;;;5005847;28;20566;-65
2023/09/24 10:39:05;;;;;;;4.65;1.20;;;18.10;61.10;;;;;;5011139;28;20120;-65
2023/09/24 10:41:36;;;;;;;6.72;1.25;;;18.10;60.60;;;;;;5024135;28;20085;-65
2023/09/24 10:44:24;;;;;;;4.03;1.42;;;18.10;48.00;;;;;;5027466;28;20484;-65
2023/09/24 10:46:50;;;;;;;10.23;1.52;;;18.10;36.20;;;;;;5010671;28;20297;-65
2023/09/24 10:49:24;;;;;;;2.88;1.10;;;18.10;35.80;;;;;;5014498;28;20045;-65
2023/09/24 10:52:00;;;;;;;5.22;1.65;;;18.20;35.90;;;;;;5021545;28;20053;-65
2023/09/24 10:54:26;;;;;;;2.05;1.23;;;18.20;29.30;;;;;;4996443;28;20499;-65
2023/09/24 10:56:52;;;;;;;3.50;1.40;;;18.30;29.80;;;;;;5015981;28;20042;-65
2023/09/24 10:59:34;;;;;;;2.55;1.45;;;18.30;32.30;;;;;;4996838;28;20041;-65
2023/09/24 11:02:15;;;;;;;3.80;1.30;;;18.30;30.20;;;;;;5018033;28;20510;-65
2023/09/24 11:04:40;;;;;;;5.75;1.38;;;18.40;24.10;;;;;;5018423;28;20117;-65
2023/09/24 11:07:09;;;;;;;3.30;1.23;;;18.40;18.90;;;;;;5016841;28;20610;-65
2023/09/24 11:09:35;;;;;;;3.63;1.05;;;18.40;22.40;;;;;;5023319;28;20085;-65
2023/09/24 11:12:07;;;;;;;6.28;1.10;;;18.50;22.20;;;;;;5008803;28;20467;-65
2023/09/24 11:14:33;;;;;;;4.97;1.30;;;18.60;17.70;;;;;;5005891;28;20050;-65
2023/09/24 11:16:59;;;;;;;1.48;1.00;;;18.60;1.00;;;;;;5019500;28;20052;-65
2023/09/24 11:19:47;;;;;;;4.85;1.13;;;18.60;1.00;;;;;;5006659;28;21023;-65
2023/09/24 11:22:26;;;;;;;3.70;1.83;;;18.70;1.00;;;;;;5002952;28;20092;-65
2023/09/24 11:25:06;;;;;;;2.53;1.13;;;18.70;1.00;;;;;;4978639;28;20041;-65
2023/09/24 11:27:35;;;;;;;;;;;18.80;1.00;;;;;;5008987;28;20589;-65
2023/09/24 11:30:02;;;;;;;2.63;1.20;;;18.90;1.00;;;;;;5028271;28;19972;-65
2023/09/24 11:32:28;;;;;;;3.60;1.40;;;18.90;14.40;;;;;;5007061;28;20049;-65
2023/09/24 11:35:07;;;;;;;2.95;1.00;;;19.00;13.40;;;;;;5008172;28;20042;-65
2023/09/24 11:37:46;;;;;;;4.50;1.13;;;19.20;12.30;;;;;;5005011;28;20122;-65
2023/09/24 11:40:30;;;;;;;4.82;1.23;;;19.20;5.70;;;;;;5014557;28;20100;-65
2023/09/24 11:43:14;;;;;;;5.18;1.20;;;19.20;1.00;;;;;;5026647;28;20097;-65
2023/09/24 11:45:55;;;;;;;6.40;1.17;;;19.20;1.00;;;;;;5025422;28;20152;-65
2023/09/24 11:48:23;;;;;;;5.65;1.45;;;19.20;1.00;;;;;;4994179;28;20049;-65
2023/09/24 11:50:57;;;;;;;5.85;0.98;;;19.20;1.00;;;;;;5026370;28;20125;-64
2023/09/24 11:53:25;;;;;;;2.63;1.15;;;19.10;1.00;;;;;;5026443;28;20120;-65
2023/09/24 11:55:53;;;;;;;1.27;1.10;;;19.20;1.00;;;;;;5026778;28;20041;-65
2023/09/24 11:58:26;;;;;;;7.60;1.52;;;19.20;1.00;;;;;;5024915;28;20072;-65
2023/09/24 12:00:52;;;;;;;2.42;1.00;;;19.20;1.00;;;;;;5027020;28;20076;-65
2023/09/24 12:03:20;;;;;;;7.65;1.30;;;19.30;1.00;;;;;;5008038;28;20053;-65
2023/09/24 12:05:46;;;;;;;4.05;1.60;;;19.20;1.00;;;;;;5025081;28;20041;-65
2023/09/24 12:08:12;;;;;;;3.00;1.05;;;19.30;1.00;;;;;;5026341;28;20049;-65
2023/09/24 12:10:40;;;;;;;3.58;1.17;;;19.30;1.00;;;;;;5026179;28;20412;-65
2023/09/24 12:13:10;;;;;;;2.28;1.30;;;19.30;1.00;;;;;;5009927;28;20042;-65
2023/09/24 12:15:37;;;;;;;3.50;1.33;;;19.40;1.00;;;;;;5025301;28;20387;-65
2023/09/24 12:18:05;;;;;;;2.83;1.00;;;19.40;1.00;;;;;;4996324;28;20052;-65
2023/09/24 12:20:35;;;;;;;1.45;0.80;;;19.50;1.00;;;;;;5025788;28;20057;-65
2023/09/24 12:23:07;;;;;;;5.00;1.05;;;19.50;1.00;;;;;;5027039;28;20057;-65
2023/09/24 12:25:36;;;;;;;3.20;1.45;;;19.60;1.00;;;;;;5023964;28;20064;-65
2023/09/24 12:28:10;;;;;;;4.40;1.58;;;19.60;1.00;;;;;;5025569;28;20045;-65
2023/09/24 12:30:37;;;;;;;2.05;1.13;;;19.70;1.00;;;;;;5027651;28;20046;-65
2023/09/24 12:33:03;;;;;;;2.70;1.15;;;19.70;1.00;;;;;;5024615;28;20041;-65
2023/09/24 12:35:29;;;;;;;1.25;1.00;;;19.80;1.00;;;;;;5023836;28;20041;-65
2023/09/24 12:37:55;;;;;;;4.25;1.50;;;19.90;1.00;;;;;;5016640;28;20053;-65
2023/09/24 12:40:25;;;;;;;2.53;1.27;;;19.90;1.00;;;;;;5030867;28;20411;-65
2023/09/24 12:42:51;;;;;;;3.97;1.15;;;20.00;1.00;;;;;;5029324;28;20877;-65
2023/09/24 12:45:18;;;;;;;2.17;0.98;;;20.00;1.00;;;;;;5030020;28;20049;-65
2023/09/24 12:47:44;;;;;;;2.78;1.00;;;20.00;1.00;;;;;;5023807;28;20065;-65
2023/09/24 12:50:12;;;;;;;5.53;1.10;;;20.00;1.00;;;;;;5027026;28;20526;-65
2023/09/24 12:52:44;;;;;;;2.20;0.88;;;20.00;1.00;;;;;;5029563;28;20049;-65